createdAt,value
2019-03-05T00:01:00.784Z,1.20
2019-03-05T00:03:04.156Z,1.27
2019-03-05T00:05:07.086Z,1.13
2019-03-05T00:07:09.996Z,1.27
2019-03-05T00:09:12.956Z,1.40
2019-03-05T00:11:16.664Z,1.48
2019-03-05T00:13:20.360Z,1.30
2019-03-05T00:15:24.407Z,1.50
2019-03-05T00:17:27.369Z,1.10
2019-03-05T00:19:31.053Z,1.83
2019-03-05T00:21:34.789Z,1.50
2019-03-05T00:23:44.329Z,1.23
2019-03-05T00:25:47.243Z,1.40
2019-03-05T00:27:55.100Z,1.30
2019-03-05T00:30:16.396Z,1.58
2019-03-05T00:32:20.200Z,1.93
2019-03-05T00:34:29.535Z,1.40
2019-03-05T00:36:35.068Z,1.80
2019-03-05T00:38:45.609Z,1.17
2019-03-05T00:41:12.879Z,1.60
2019-03-05T00:43:17.528Z,1.20
2019-03-05T00:45:23.050Z,1.90
2019-03-05T00:47:33.280Z,1.20
2019-03-05T00:49:52.632Z,1.10
2019-03-05T00:51:56.267Z,1.47
2019-03-05T00:54:10.859Z,1.30
2019-03-05T00:56:15.377Z,1.60
2019-03-05T00:58:22.911Z,1.73
2019-03-05T01:00:48.648Z,1.30
2019-03-05T01:03:00.949Z,1.00
2019-03-05T01:05:16.471Z,1.20
2019-03-05T01:07:19.436Z,1.50
2019-03-05T01:09:22.361Z,1.75
2019-03-05T01:11:25.294Z,1.40
2019-03-05T01:13:28.244Z,1.17
2019-03-05T01:15:32.077Z,1.30
2019-03-05T01:17:35.017Z,1.43
2019-03-05T01:19:38.128Z,1.05
2019-03-05T01:21:41.828Z,2.03
2019-03-05T01:23:44.755Z,1.00
2019-03-05T01:25:47.703Z,1.30
2019-03-05T01:27:51.004Z,0.83
2019-03-05T01:29:53.942Z,1.07
2019-03-05T01:31:57.766Z,1.10
2019-03-05T01:34:02.252Z,1.50
2019-03-05T01:36:05.207Z,0.70
2019-03-05T01:38:08.268Z,1.20
2019-03-05T01:40:11.193Z,1.05
2019-03-05T01:42:14.319Z,1.47
2019-03-05T01:44:18.055Z,1.53
2019-03-05T01:46:21.003Z,1.00
2019-03-05T01:48:24.703Z,1.20
2019-03-05T01:50:28.424Z,1.00
2019-03-05T01:52:31.339Z,1.30
2019-03-05T01:54:34.471Z,1.10
2019-03-05T01:56:38.311Z,1.20
2019-03-05T01:58:41.227Z,1.13
2019-03-05T02:00:44.260Z,1.13
2019-03-05T02:02:47.288Z,1.50
2019-03-05T02:04:50.207Z,1.10
2019-03-05T02:06:53.196Z,1.42
2019-03-05T02:08:56.159Z,1.33
2019-03-05T02:10:59.840Z,1.30
2019-03-05T02:13:02.767Z,1.07
2019-03-05T02:15:05.858Z,1.00
2019-03-05T02:17:08.779Z,1.23
2019-03-05T02:19:24.422Z,1.07
2019-03-05T02:21:27.806Z,1.00
2019-03-05T02:23:31.500Z,1.12
2019-03-05T02:25:53.883Z,1.80
2019-03-05T02:27:56.842Z,1.20
2019-03-05T02:30:01.420Z,1.13
2019-03-05T02:32:06.055Z,1.10
2019-03-05T02:34:29.621Z,1.05
2019-03-05T02:36:52.981Z,1.13
2019-03-05T02:39:18.368Z,1.10
2019-03-05T02:41:34.495Z,0.90
2019-03-05T02:43:57.911Z,1.27
2019-03-05T02:46:07.568Z,1.43
2019-03-05T02:48:12.992Z,1.35
2019-03-05T02:50:53.989Z,1.53
2019-03-05T02:53:12.398Z,1.45
2019-03-05T02:55:19.779Z,1.30
2019-03-05T02:57:22.236Z,1.40
2019-03-05T02:59:25.194Z,1.30
2019-03-05T03:01:31.668Z,1.40
2019-03-05T03:03:35.333Z,1.20
2019-03-05T03:05:38.251Z,1.03
2019-03-05T03:07:41.190Z,1.13
2019-03-05T03:09:57.781Z,0.93
2019-03-05T03:12:00.796Z,1.17
2019-03-05T03:14:03.950Z,1.23
2019-03-05T03:16:06.886Z,0.80
2019-03-05T03:18:09.803Z,1.10
2019-03-05T03:20:12.738Z,1.80
2019-03-05T03:22:15.662Z,1.08
2019-03-05T03:24:18.584Z,0.90
2019-03-05T03:26:22.367Z,1.33
2019-03-05T03:28:26.054Z,1.20
2019-03-05T03:30:29.007Z,1.37
2019-03-05T03:32:32.059Z,1.00
2019-03-05T03:34:35.862Z,1.02
2019-03-05T03:36:39.539Z,1.53
2019-03-05T03:38:43.362Z,0.90
2019-03-05T03:40:47.035Z,1.10
2019-03-05T03:42:49.970Z,1.23
2019-03-05T03:44:52.926Z,1.30
2019-03-05T03:46:56.595Z,1.10
2019-03-05T03:48:59.611Z,0.90
2019-03-05T03:51:03.513Z,1.10
2019-03-05T03:53:07.212Z,0.97
2019-03-05T03:55:11.589Z,0.90
2019-03-05T03:57:14.542Z,1.33
2019-03-05T03:59:18.285Z,0.95
2019-03-05T04:01:22.729Z,0.90
2019-03-05T04:03:26.536Z,1.20
2019-03-05T04:05:30.219Z,0.80
2019-03-05T04:07:33.911Z,2.12
2019-03-05T04:09:38.372Z,0.80
2019-03-05T04:11:41.323Z,1.10
2019-03-05T04:13:45.027Z,0.90
2019-03-05T04:15:48.833Z,1.20
2019-03-05T04:17:52.511Z,0.75
2019-03-05T04:19:56.199Z,1.30
2019-03-05T04:21:59.137Z,1.27
2019-03-05T04:24:02.059Z,0.85
2019-03-05T04:26:04.995Z,1.00
2019-03-05T04:28:08.780Z,1.20
2019-03-05T04:30:13.205Z,0.70
2019-03-05T04:32:16.120Z,2.47
2019-03-05T04:34:19.163Z,1.30
2019-03-05T04:36:22.130Z,1.25
2019-03-05T04:38:25.042Z,1.10
2019-03-05T04:40:28.113Z,1.35
2019-03-05T04:42:31.812Z,1.50
2019-03-05T04:44:36.314Z,1.27
2019-03-05T04:46:40.159Z,0.85
2019-03-05T04:48:43.084Z,1.35
2019-03-05T04:51:03.627Z,1.40
2019-03-05T04:53:06.594Z,1.12
2019-03-05T04:55:10.293Z,1.23
2019-03-05T04:57:14.199Z,0.90
2019-03-05T04:59:17.980Z,1.10
2019-03-05T05:01:21.668Z,1.08
2019-03-05T05:03:25.237Z,1.07
2019-03-05T05:05:28.386Z,1.45
2019-03-05T05:07:31.312Z,0.95
2019-03-05T05:09:34.263Z,1.25
2019-03-05T05:11:37.174Z,1.00
2019-03-05T05:13:40.109Z,1.23
2019-03-05T05:15:43.914Z,0.70
2019-03-05T05:17:47.593Z,1.05
2019-03-05T05:19:50.512Z,0.80
2019-03-05T05:21:53.611Z,1.55
2019-03-05T05:23:56.561Z,0.90
2019-03-05T05:26:00.246Z,0.90
2019-03-05T05:28:03.244Z,1.00
2019-03-05T05:30:06.920Z,1.10
2019-03-05T05:32:10.611Z,0.80
2019-03-05T05:34:13.566Z,1.60
2019-03-05T05:36:16.487Z,1.00
2019-03-05T05:38:20.178Z,0.82
2019-03-05T05:40:26.387Z,0.90
2019-03-05T05:42:29.311Z,1.10
2019-03-05T05:44:32.448Z,1.20
2019-03-05T05:46:36.146Z,1.63
2019-03-05T05:48:39.766Z,1.00
2019-03-05T05:50:42.699Z,1.02
2019-03-05T05:52:45.639Z,1.27
2019-03-05T05:54:48.568Z,0.85
2019-03-05T05:56:52.282Z,1.33
2019-03-05T05:58:56.100Z,1.25
2019-03-05T06:00:59.169Z,1.20
2019-03-05T06:03:02.846Z,0.70
2019-03-05T06:05:05.990Z,0.93
2019-03-05T06:07:08.914Z,0.85
2019-03-05T06:09:11.855Z,0.83
2019-03-05T06:11:14.814Z,1.20
2019-03-05T06:13:17.739Z,1.13
2019-03-05T06:15:20.765Z,1.23
2019-03-05T06:17:23.725Z,1.20
2019-03-05T06:19:27.424Z,0.80
2019-03-05T06:21:30.349Z,1.55
2019-03-05T06:23:33.374Z,1.37
2019-03-05T06:25:36.919Z,1.30
2019-03-05T06:27:40.711Z,1.00
2019-03-05T06:29:44.411Z,1.20
2019-03-05T06:31:48.082Z,0.93
2019-03-05T06:33:51.011Z,1.07
2019-03-05T06:35:54.062Z,1.30
2019-03-05T06:37:57.747Z,1.00
2019-03-05T06:40:00.738Z,0.95
2019-03-05T06:42:03.626Z,1.37
2019-03-05T06:44:09.378Z,1.15
2019-03-05T06:46:10.278Z,0.70
2019-03-05T06:48:13.459Z,1.30
2019-03-05T06:50:17.260Z,1.10
2019-03-05T06:52:20.194Z,1.45
2019-03-05T06:54:23.891Z,1.00
2019-03-05T06:56:27.578Z,0.93
2019-03-05T06:58:31.269Z,0.70
2019-03-05T07:00:34.991Z,1.23
2019-03-05T07:02:38.794Z,1.00
2019-03-05T07:04:42.471Z,1.35
2019-03-05T07:06:59.322Z,0.90
2019-03-05T07:12:54.836Z,0.93
2019-03-05T07:22:49.580Z,0.60
2019-03-05T07:32:42.543Z,1.00
2019-03-05T07:52:43.023Z,1.00
2019-03-05T08:02:41.408Z,0.80
2019-03-05T08:12:50.734Z,1.17
2019-03-05T08:22:53.157Z,1.03
2019-03-05T08:40:38.635Z,0.70
2019-03-05T08:52:37.218Z,0.80
2019-03-05T09:02:48.043Z,0.70
2019-03-05T09:04:51.597Z,0.87
2019-03-05T09:12:38.159Z,1.10
2019-03-05T09:22:38.816Z,0.80
2019-03-05T09:32:38.165Z,1.07
2019-03-05T09:42:40.124Z,1.00
2019-03-05T09:44:53.196Z,0.83
2019-03-05T09:52:38.543Z,1.27
2019-03-05T10:02:37.655Z,0.60
2019-03-05T10:12:42.418Z,0.60
2019-03-05T10:22:39.730Z,0.83
2019-03-05T10:32:39.799Z,0.60
2019-03-05T10:42:37.714Z,0.53
2019-03-05T10:52:38.218Z,0.80
2019-03-05T11:02:40.101Z,0.50
2019-03-05T11:12:28.087Z,0.63
2019-03-05T11:14:31.784Z,0.70
2019-03-05T11:16:35.575Z,0.80
2019-03-05T11:18:39.254Z,0.93
2019-03-05T11:20:42.507Z,0.57
2019-03-05T11:22:45.432Z,0.95
2019-03-05T11:24:49.878Z,0.77
2019-03-05T11:26:53.595Z,1.10
2019-03-05T11:28:56.530Z,1.03
2019-03-05T11:30:59.484Z,0.80
2019-03-05T11:33:02.443Z,1.25
2019-03-05T11:35:05.471Z,0.80
2019-03-05T11:37:08.386Z,0.80
2019-03-05T11:39:12.249Z,1.63
2019-03-05T11:41:15.184Z,1.10
2019-03-05T11:43:20.181Z,1.25
2019-03-05T11:45:25.649Z,1.15
2019-03-05T11:47:28.572Z,0.90
2019-03-05T11:49:31.723Z,0.82
2019-03-05T11:51:34.667Z,1.25
2019-03-05T11:53:38.847Z,1.17
2019-03-05T11:55:42.216Z,1.00
2019-03-05T11:57:45.131Z,0.90
2019-03-05T11:59:48.283Z,0.80
2019-03-05T12:01:51.807Z,1.10
2019-03-05T12:03:55.627Z,1.00
2019-03-05T12:05:58.650Z,0.80
2019-03-05T12:08:03.095Z,1.50
2019-03-05T12:10:06.027Z,0.82
2019-03-05T12:12:18.887Z,1.20
2019-03-05T12:22:38.015Z,0.87
2019-03-05T12:32:40.437Z,1.03
2019-03-05T12:42:38.315Z,0.93
2019-03-05T12:52:38.690Z,1.30
2019-03-05T13:02:39.168Z,0.90
2019-03-05T13:12:40.196Z,0.60
2019-03-05T13:14:53.467Z,0.97
2019-03-05T13:22:42.565Z,0.83
2019-03-05T13:24:54.604Z,1.23
2019-03-05T13:32:39.984Z,1.13
2019-03-05T13:42:39.271Z,0.97
2019-03-05T13:52:42.474Z,1.00
2019-03-05T13:54:49.696Z,1.20
2019-03-05T13:57:05.036Z,0.90
2019-03-05T13:59:33.416Z,1.00
2019-03-05T14:01:37.135Z,1.10
2019-03-05T14:03:40.910Z,1.15
2019-03-05T14:06:02.315Z,1.27
2019-03-05T14:08:17.401Z,1.55
2019-03-05T14:10:20.374Z,1.30
2019-03-05T14:12:23.318Z,1.23
2019-03-05T14:14:26.362Z,1.20
2019-03-05T14:16:29.286Z,1.40
2019-03-05T14:18:32.331Z,1.10
2019-03-05T14:20:35.358Z,1.37
2019-03-05T14:22:38.988Z,1.40
2019-03-05T14:24:42.679Z,1.27
2019-03-05T14:26:46.488Z,1.50
2019-03-05T14:28:50.172Z,1.20
2019-03-05T14:30:53.111Z,1.10
2019-03-05T14:32:56.076Z,1.17
2019-03-05T14:34:58.996Z,1.00
2019-03-05T14:37:01.972Z,1.00
2019-03-05T14:39:05.025Z,1.40
2019-03-05T14:41:08.097Z,0.80
2019-03-05T14:43:11.819Z,1.00
2019-03-05T14:45:16.525Z,1.43
2019-03-05T14:47:19.425Z,1.10
2019-03-05T14:49:22.358Z,1.33
2019-03-05T14:51:25.354Z,1.20
2019-03-05T14:53:28.335Z,1.07
2019-03-05T14:55:31.286Z,1.00
2019-03-05T14:57:34.342Z,1.20
2019-03-05T14:59:37.277Z,1.20
2019-03-05T15:01:40.204Z,1.30
2019-03-05T15:03:43.147Z,1.10
2019-03-05T15:05:46.996Z,0.93
2019-03-05T15:07:49.853Z,1.10
2019-03-05T15:09:52.812Z,1.30
2019-03-05T15:11:55.846Z,1.17
2019-03-05T15:13:58.794Z,1.27
2019-03-05T15:16:02.489Z,1.00
2019-03-05T15:18:06.294Z,1.33
2019-03-05T15:20:09.991Z,1.10
2019-03-05T15:22:13.751Z,1.27
2019-03-05T15:24:16.721Z,0.83
2019-03-05T15:26:19.719Z,1.30
2019-03-05T15:28:22.665Z,0.87
2019-03-05T15:30:28.630Z,0.90
2019-03-05T15:32:28.556Z,0.70
2019-03-05T15:34:31.615Z,1.00
2019-03-05T15:36:35.493Z,0.70
2019-03-05T15:38:39.327Z,0.70
2019-03-05T15:40:42.273Z,1.10
2019-03-05T15:42:46.002Z,0.83
2019-03-05T15:44:49.704Z,0.97
2019-03-05T15:46:52.632Z,0.63
2019-03-05T15:48:55.680Z,0.90
2019-03-05T15:50:58.585Z,1.10
2019-03-05T15:53:01.584Z,0.80
2019-03-05T15:55:04.844Z,0.70
2019-03-05T15:57:07.884Z,1.00
2019-03-05T15:59:11.614Z,0.60
2019-03-05T16:01:22.037Z,0.80
2019-03-05T16:03:18.304Z,1.10
2019-03-05T16:05:22.087Z,0.70
2019-03-05T16:07:24.949Z,0.73
2019-03-05T16:09:28.668Z,0.80
2019-03-05T16:11:34.118Z,0.60
2019-03-05T16:13:35.311Z,1.00
2019-03-05T16:15:38.268Z,1.17
2019-03-05T16:17:41.298Z,0.97
2019-03-05T16:19:44.999Z,0.93
2019-03-05T16:21:48.085Z,1.10
2019-03-05T16:23:51.783Z,0.83
2019-03-05T16:25:55.480Z,0.90
2019-03-05T16:28:02.259Z,0.90
2019-03-05T16:30:02.148Z,1.07
2019-03-05T16:32:06.640Z,0.70
2019-03-05T16:34:13.127Z,1.47
2019-03-05T16:36:32.079Z,0.70
2019-03-05T16:38:55.130Z,1.00
2019-03-05T16:41:16.991Z,0.70
2019-03-05T16:43:34.334Z,0.80
2019-03-05T16:45:49.031Z,0.70
2019-03-05T16:47:57.742Z,0.60
2019-03-05T16:50:16.279Z,0.70
2019-03-05T16:52:21.809Z,0.70
2019-03-05T16:54:25.587Z,0.70
2019-03-05T16:56:31.948Z,0.60
2019-03-05T16:58:38.606Z,0.65
2019-03-05T17:00:49.063Z,0.80
2019-03-05T17:02:48.332Z,0.70
2019-03-05T17:04:56.907Z,0.80
2019-03-05T17:07:11.042Z,1.00
2019-03-05T17:09:14.781Z,0.70
2019-03-05T17:11:17.712Z,0.60
2019-03-05T17:13:20.671Z,0.73
2019-03-05T17:15:24.359Z,0.63
2019-03-05T17:17:27.281Z,0.80
2019-03-05T17:19:30.307Z,0.70
2019-03-05T17:21:33.253Z,0.60
2019-03-05T17:23:36.186Z,0.70
2019-03-05T17:25:39.146Z,0.80
2019-03-05T17:27:42.895Z,0.83
2019-03-05T17:29:46.596Z,0.87
2019-03-05T17:31:50.319Z,0.80
2019-03-05T17:33:53.235Z,1.17
2019-03-05T17:35:56.145Z,0.70
2019-03-05T17:37:59.884Z,0.93
2019-03-05T17:40:02.799Z,0.80
2019-03-05T17:42:05.825Z,0.80
2019-03-05T17:44:09.550Z,0.90
2019-03-05T17:46:12.471Z,0.80
2019-03-05T17:48:15.410Z,1.00
2019-03-05T17:50:18.893Z,0.87
2019-03-05T17:52:21.827Z,1.10
2019-03-05T17:54:24.768Z,0.90
2019-03-05T17:56:27.833Z,1.10
2019-03-05T17:58:30.783Z,0.90
2019-03-05T18:00:33.723Z,1.00
2019-03-05T18:02:36.687Z,1.27
2019-03-05T18:04:40.366Z,1.10
2019-03-05T18:06:44.827Z,1.10
2019-03-05T18:08:47.795Z,0.90
2019-03-05T18:10:50.715Z,1.00
2019-03-05T18:12:53.815Z,1.58
2019-03-05T18:14:56.750Z,2.63
2019-03-05T18:16:59.686Z,1.47
2019-03-05T18:19:02.900Z,1.27
2019-03-05T18:21:06.622Z,1.17
2019-03-05T18:23:09.539Z,0.80
2019-03-05T18:25:12.480Z,0.90
2019-03-05T18:27:15.422Z,1.07
2019-03-05T18:29:19.111Z,1.10
2019-03-05T18:31:22.078Z,1.00
2019-03-05T18:33:25.016Z,1.30
2019-03-05T18:35:28.687Z,1.20
2019-03-05T18:37:32.513Z,1.53
2019-03-05T18:39:35.906Z,1.30
2019-03-05T18:41:38.950Z,1.25
2019-03-05T18:43:41.974Z,1.50
2019-03-05T18:45:44.902Z,1.50
2019-03-05T18:47:47.890Z,2.08
2019-03-05T18:49:51.742Z,1.37
2019-03-05T18:51:55.420Z,1.37
2019-03-05T18:53:58.532Z,1.40
2019-03-05T18:56:02.499Z,1.50
2019-03-05T18:58:06.505Z,1.17
2019-03-05T19:00:12.948Z,1.43
2019-03-05T19:02:15.884Z,0.90
2019-03-05T19:04:19.771Z,1.27
2019-03-05T19:06:23.697Z,1.35
2019-03-05T19:08:27.020Z,1.30
2019-03-05T19:10:30.253Z,1.27
2019-03-05T19:12:34.183Z,1.50
2019-03-05T19:14:37.209Z,2.08
2019-03-05T19:16:40.778Z,1.87
2019-03-05T19:18:44.054Z,1.62
2019-03-05T19:20:47.213Z,1.55
2019-03-05T19:22:50.973Z,1.55
2019-03-05T19:24:53.892Z,1.90
2019-03-05T19:26:56.819Z,1.40
2019-03-05T19:29:00.027Z,1.83
2019-03-05T19:31:02.948Z,1.30
2019-03-05T19:33:05.871Z,1.90
2019-03-05T19:35:08.815Z,1.47
2019-03-05T19:37:12.511Z,1.73
2019-03-05T19:39:15.438Z,1.60
2019-03-05T19:41:18.525Z,2.28
2019-03-05T19:43:21.455Z,2.50
2019-03-05T19:45:24.473Z,1.75
2019-03-05T19:47:28.186Z,1.90
2019-03-05T19:49:31.196Z,1.97
2019-03-05T19:51:34.274Z,2.63
2019-03-05T19:53:37.529Z,2.35
2019-03-05T19:55:41.465Z,2.30
2019-03-05T19:57:44.630Z,5.47
2019-03-05T19:59:47.916Z,3.50
2019-03-05T20:01:51.306Z,2.75
2019-03-05T20:03:54.597Z,2.30
2019-03-05T20:05:57.556Z,2.87
2019-03-05T20:08:02.097Z,2.50
2019-03-05T20:10:06.313Z,3.75
2019-03-05T20:12:09.327Z,2.90
2019-03-05T20:14:12.365Z,3.50
2019-03-05T20:16:16.095Z,2.62
2019-03-05T20:18:19.162Z,3.00
2019-03-05T20:20:22.884Z,2.83
2019-03-05T20:22:25.950Z,3.25
2019-03-05T20:24:29.695Z,2.70
2019-03-05T20:26:32.764Z,3.00
2019-03-05T20:28:35.951Z,2.65
2019-03-05T20:30:38.708Z,3.00
2019-03-05T20:32:41.740Z,2.53
2019-03-05T20:34:46.599Z,2.93
2019-03-05T20:36:47.831Z,3.10
2019-03-05T20:38:51.727Z,3.10
2019-03-05T20:40:54.660Z,3.30
2019-03-05T20:42:57.596Z,3.60
2019-03-05T20:45:00.781Z,3.62
2019-03-05T20:47:03.730Z,3.28
2019-03-05T20:49:06.655Z,3.62
2019-03-05T20:51:10.478Z,3.62
2019-03-05T20:53:13.439Z,3.65
2019-03-05T20:55:17.279Z,3.65
2019-03-05T20:57:20.348Z,3.00
2019-03-05T20:59:23.357Z,3.10
2019-03-05T21:01:26.535Z,3.42
2019-03-05T21:03:29.550Z,3.53
2019-03-05T21:05:37.065Z,3.45
2019-03-05T21:07:40.044Z,3.10
2019-03-05T21:09:43.895Z,3.10
2019-03-05T21:11:47.557Z,2.80
2019-03-05T21:13:50.659Z,3.75
2019-03-05T21:15:53.602Z,2.72
2019-03-05T21:17:56.545Z,3.40
2019-03-05T21:19:59.502Z,3.08
2019-03-05T21:22:03.194Z,2.77
2019-03-05T21:24:06.935Z,3.17
2019-03-05T21:26:09.895Z,3.40
2019-03-05T21:28:12.826Z,3.10
2019-03-05T21:30:19.431Z,2.70
2019-03-05T21:32:23.245Z,4.15
2019-03-05T21:34:26.954Z,3.50
2019-03-05T21:36:30.849Z,3.20
2019-03-05T21:38:33.783Z,3.12
2019-03-05T21:40:37.496Z,4.20
2019-03-05T21:42:40.566Z,4.03
2019-03-05T21:44:44.252Z,3.85
2019-03-05T21:46:47.174Z,3.08
2019-03-05T21:48:51.000Z,2.95
2019-03-05T21:50:54.802Z,3.00
2019-03-05T21:52:58.500Z,3.22
2019-03-05T21:55:02.227Z,3.55
2019-03-05T21:57:05.157Z,2.55
2019-03-05T21:59:08.169Z,3.00
2019-03-05T22:01:11.898Z,2.35
2019-03-05T22:03:14.823Z,2.27
2019-03-05T22:05:17.756Z,2.07
2019-03-05T22:07:20.818Z,2.40
2019-03-05T22:09:24.530Z,2.97
2019-03-05T22:11:27.460Z,2.95
2019-03-05T22:13:30.418Z,2.65
2019-03-05T22:15:33.356Z,2.47
2019-03-05T22:17:37.051Z,1.60
2019-03-05T22:19:40.012Z,2.53
2019-03-05T22:21:43.032Z,2.55
2019-03-05T22:23:45.982Z,2.62
2019-03-05T22:25:48.927Z,2.50
2019-03-05T22:27:51.852Z,2.70
2019-03-05T22:29:54.899Z,2.37
2019-03-05T22:31:57.859Z,2.20
2019-03-05T22:34:01.530Z,2.20
2019-03-05T22:36:05.338Z,2.00
2019-03-05T22:38:08.433Z,2.20
2019-03-05T22:40:11.399Z,1.73
2019-03-05T22:42:15.218Z,2.60
2019-03-05T22:44:18.160Z,2.20
2019-03-05T22:46:21.115Z,1.40
2019-03-05T22:48:24.040Z,1.98
2019-03-05T22:50:27.750Z,1.60
2019-03-05T22:52:31.853Z,1.95
2019-03-05T22:54:35.555Z,1.70
2019-03-05T22:56:38.470Z,1.83
2019-03-05T22:58:41.462Z,1.30
2019-03-05T23:00:48.311Z,1.48
2019-03-05T23:02:51.238Z,1.40
2019-03-05T23:04:54.585Z,1.25
2019-03-05T23:06:58.255Z,1.60
2019-03-05T23:09:01.202Z,1.33
2019-03-05T23:11:04.241Z,1.55
2019-03-05T23:13:07.190Z,1.50
2019-03-05T23:15:10.115Z,1.90
2019-03-05T23:17:13.302Z,1.95
2019-03-05T23:19:16.223Z,1.63
2019-03-05T23:21:19.167Z,1.50
2019-03-05T23:23:22.081Z,1.50
2019-03-05T23:25:25.083Z,1.53
2019-03-05T23:27:28.018Z,1.83
2019-03-05T23:29:31.437Z,1.30
2019-03-05T23:31:34.361Z,1.30
2019-03-05T23:33:38.168Z,1.27
2019-03-05T23:35:41.090Z,2.17
2019-03-05T23:37:44.025Z,1.85
2019-03-05T23:39:47.860Z,1.50
2019-03-05T23:41:51.664Z,1.58
2019-03-05T23:43:55.342Z,2.10
2019-03-05T23:45:58.279Z,1.60
2019-03-05T23:48:01.194Z,2.40
2019-03-05T23:50:05.140Z,1.63
2019-03-05T23:52:08.219Z,2.75
2019-03-05T23:54:11.142Z,2.20
2019-03-05T23:56:14.195Z,1.60
2019-03-05T23:58:17.961Z,1.80
